Time,TemperatureF,DewpointF,PressureIn,WindDirection,WindDirectionDegrees,WindSpeedMPH,WindSpeedGustMPH,Humidity,HourlyPrecipIn,Conditions,Clouds,dailyrainin,SoftwareType,DateUTC
2014-12-27 00:04:00,36.1,32.0,30.23,SW,227,0.0,0.0,86,0.00,,,0.00,weatherlink.com 1.10,2014-12-27 05:04:00,
2014-12-27 00:19:00,36.1,33.0,30.22,SW,227,0.0,0.0,87,0.00,,,0.00,weatherlink.com 1.10,2014-12-27 05:19:00,
2014-12-27 00:34:00,36.5,33.0,30.22,SW,228,0.0,0.0,87,0.00,,,0.00,weatherlink.com 1.10,2014-12-27 05:34:00,
2014-12-27 00:49:00,36.4,33.0,30.22,SW,228,0.0,0.0,87,0.00,,,0.00,weatherlink.com 1.10,2014-12-27 05:49:00,
2014-12-27 01:05:00,36.9,33.0,30.22,West,264,0.0,1.0,87,0.00,,,0.00,weatherlink.com 1.10,2014-12-27 06:05:00,
2014-12-27 01:19:00,36.8,33.0,30.22,WSW,248,0.0,0.0,87,0.00,,,0.00,weatherlink.com 1.10,2014-12-27 06:19:00,
2014-12-27 01:34:00,36.5,33.0,30.22,WSW,248,0.0,0.0,87,0.00,,,0.00,weatherlink.com 1.10,2014-12-27 06:34:00,
2014-12-27 01:49:00,35.6,32.0,30.21,WSW,248,0.0,0.0,87,0.00,,,0.00,weatherlink.com 1.10,2014-12-27 06:49:00,
2014-12-27 02:04:00,35.0,32.0,30.23,WSW,248,0.0,0.0,89,0.00,,,0.00,weatherlink.com 1.10,2014-12-27 07:04:00,
2014-12-27 02:19:00,34.5,32.0,30.23,WSW,248,0.0,0.0,90,0.00,,,0.00,weatherlink.com 1.10,2014-12-27 07:19:00,
2014-12-27 02:34:00,35.1,33.0,30.24,WSW,248,0.0,0.0,90,0.00,,,0.00,weatherlink.com 1.10,2014-12-27 07:34:00,
2014-12-27 02:49:00,34.9,33.0,30.23,WSW,248,0.0,0.0,91,0.00,,,0.00,weatherlink.com 1.10,2014-12-27 07:49:00,
2014-12-27 03:04:00,35.0,33.0,30.23,WSW,248,0.0,0.0,91,0.00,,,0.00,weatherlink.com 1.10,2014-12-27 08:04:00,
2014-12-27 03:19:00,34.7,32.0,30.23,WSW,248,0.0,0.0,91,0.00,,,0.00,weatherlink.com 1.10,2014-12-27 08:19:00,
2014-12-27 03:34:00,34.6,32.0,30.23,WSW,248,0.0,0.0,91,0.00,,,0.00,weatherlink.com 1.10,2014-12-27 08:34:00,
2014-12-27 03:49:00,34.4,32.0,30.21,WSW,248,0.0,0.0,92,0.00,,,0.00,weatherlink.com 1.10,2014-12-27 08:49:00,
2014-12-27 04:04:00,34.3,32.0,30.22,WSW,248,0.0,0.0,92,0.00,,,0.00,weatherlink.com 1.10,2014-12-27 09:04:00,
2014-12-27 04:18:00,34.5,33.0,30.22,SW,233,0.0,0.0,92,0.00,,,0.00,weatherlink.com 1.10,2014-12-27 09:18:00,
2014-12-27 04:35:00,34.7,33.0,30.23,SW,234,0.0,0.0,92,0.00,,,0.00,weatherlink.com 1.10,2014-12-27 09:35:00,
2014-12-27 04:49:00,34.5,32.0,30.23,SW,234,0.0,0.0,91,0.00,,,0.00,weatherlink.com 1.10,2014-12-27 09:49:00,
2014-12-27 05:04:00,34.4,32.0,30.23,SW,234,0.0,0.0,92,0.00,,,0.00,weatherlink.com 1.10,2014-12-27 10:04:00,
2014-12-27 05:19:00,34.2,32.0,30.24,SW,233,0.0,0.0,91,0.00,,,0.00,weatherlink.com 1.10,2014-12-27 10:19:00,
2014-12-27 05:34:00,33.7,32.0,30.24,SW,233,0.0,0.0,92,0.00,,,0.00,weatherlink.com 1.10,2014-12-27 10:34:00,
2014-12-27 05:49:00,33.6,32.0,30.24,SW,233,0.0,0.0,93,0.00,,,0.00,weatherlink.com 1.10,2014-12-27 10:49:00,
2014-12-27 06:04:00,33.4,31.0,30.24,SW,233,0.0,0.0,92,0.00,,,0.00,weatherlink.com 1.10,2014-12-27 11:04:00,
2014-12-27 06:19:00,33.2,31.0,30.24,SW,233,0.0,0.0,93,0.00,,,0.00,weatherlink.com 1.10,2014-12-27 11:19:00,
2014-12-27 06:35:00,32.9,31.0,30.24,SW,234,0.0,0.0,93,0.00,,,0.00,weatherlink.com 1.10,2014-12-27 11:35:00,
2014-12-27 06:50:00,32.7,31.0,30.25,SW,233,0.0,0.0,93,0.00,,,0.00,weatherlink.com 1.10,2014-12-27 11:50:00,
2014-12-27 07:05:00,32.6,31.0,30.26,SW,233,0.0,0.0,93,0.00,,,0.00,weatherlink.com 1.10,2014-12-27 12:05:00,
2014-12-27 07:20:00,32.9,31.0,30.26,SW,233,0.0,0.0,94,0.00,,,0.00,weatherlink.com 1.10,2014-12-27 12:20:00,
2014-12-27 07:35:00,33.5,32.0,30.26,SW,233,0.0,0.0,94,0.00,,,0.00,weatherlink.com 1.10,2014-12-27 12:35:00,
2014-12-27 07:50:00,33.3,32.0,30.26,SW,233,0.0,0.0,94,0.00,,,0.00,weatherlink.com 1.10,2014-12-27 12:50:00,
2014-12-27 08:05:00,33.7,32.0,30.26,SW,233,0.0,0.0,94,0.00,,,0.00,weatherlink.com 1.10,2014-12-27 13:05:00,
2014-12-27 08:20:00,34.5,33.0,30.26,SW,233,0.0,0.0,94,0.00,,,0.00,weatherlink.com 1.10,2014-12-27 13:20:00,
2014-12-27 08:35:00,35.4,34.0,30.27,SW,236,0.0,0.0,94,0.00,,,0.00,weatherlink.com 1.10,2014-12-27 13:35:00,
2014-12-27 08:50:00,36.3,34.0,30.27,WSW,244,0.0,1.0,92,0.00,,,0.00,weatherlink.com 1.10,2014-12-27 13:50:00,
2014-12-27 09:05:00,36.7,34.0,30.27,SW,236,0.0,0.0,90,0.00,,,0.00,weatherlink.com 1.10,2014-12-27 14:05:00,
2014-12-27 09:20:00,38.0,35.0,30.29,WSW,240,2.0,3.0,88,0.00,,,0.00,weatherlink.com 1.10,2014-12-27 14:20:00,
2014-12-27 09:35:00,39.8,36.0,30.29,West,269,0.0,4.0,85,0.00,,,0.00,weatherlink.com 1.10,2014-12-27 14:35:00,
2014-12-27 09:50:00,41.1,36.0,30.29,SW,232,0.0,2.0,83,0.00,,,0.00,weatherlink.com 1.10,2014-12-27 14:50:00,
2014-12-27 10:05:00,42.6,37.0,30.28,SW,218,0.0,2.0,80,0.00,,,0.00,weatherlink.com 1.10,2014-12-27 15:05:00,
2014-12-27 10:20:00,44.0,38.0,30.28,WSW,238,0.0,2.0,78,0.00,,,0.00,weatherlink.com 1.10,2014-12-27 15:20:00,
2014-12-27 10:35:00,45.1,38.0,30.27,West,281,0.0,2.0,75,0.00,,,0.00,weatherlink.com 1.10,2014-12-27 15:35:00,
2014-12-27 10:50:00,46.1,38.0,30.27,West,260,2.0,2.0,72,0.00,,,0.00,weatherlink.com 1.10,2014-12-27 15:50:00,
2014-12-27 11:05:00,47.0,38.0,30.26,SW,224,0.0,3.0,70,0.00,,,0.00,weatherlink.com 1.10,2014-12-27 16:05:00,
2014-12-27 11:20:00,48.1,38.0,30.26,West,273,0.0,3.0,68,0.00,,,0.00,weatherlink.com 1.10,2014-12-27 16:20:00,
2014-12-27 11:35:00,49.1,38.0,30.25,East,89,0.0,3.0,66,0.00,,,0.00,weatherlink.com 1.10,2014-12-27 16:35:00,
2014-12-27 11:50:00,50.1,38.0,30.24,West,269,0.0,2.0,64,0.00,,,0.00,weatherlink.com 1.10,2014-12-27 16:50:00,
2014-12-27 12:05:00,51.1,38.0,30.24,West,275,0.0,3.0,62,0.00,,,0.00,weatherlink.com 1.10,2014-12-27 17:05:00,
2014-12-27 12:20:00,52.4,38.0,30.23,SW,230,2.0,2.0,58,0.00,,,0.00,weatherlink.com 1.10,2014-12-27 17:20:00,
2014-12-27 12:35:00,52.6,38.0,30.22,WSW,243,0.0,2.0,57,0.00,,,0.00,weatherlink.com 1.10,2014-12-27 17:35:00,
2014-12-27 12:50:00,53.4,37.0,30.21,SW,221,1.0,3.0,54,0.00,,,0.00,weatherlink.com 1.10,2014-12-27 17:50:00,
2014-12-27 13:05:00,54.0,37.0,30.21,SW,235,0.0,2.0,54,0.00,,,0.00,weatherlink.com 1.10,2014-12-27 18:05:00,
2014-12-27 13:20:00,54.8,37.0,30.20,WSW,242,0.0,1.0,52,0.00,,,0.00,weatherlink.com 1.10,2014-12-27 18:20:00,
2014-12-27 13:35:00,55.3,35.0,30.20,NNW,335,0.0,3.0,47,0.00,,,0.00,weatherlink.com 1.10,2014-12-27 18:35:00,
2014-12-27 13:50:00,55.5,35.0,30.18,WNW,283,1.0,3.0,47,0.00,,,0.00,weatherlink.com 1.10,2014-12-27 18:50:00,
2014-12-27 14:05:00,55.9,36.0,30.17,SW,228,0.0,1.0,47,0.00,,,0.00,weatherlink.com 1.10,2014-12-27 19:05:00,
2014-12-27 14:20:00,56.0,36.0,30.16,SW,235,0.0,1.0,47,0.00,,,0.00,weatherlink.com 1.10,2014-12-27 19:20:00,
2014-12-27 14:35:00,56.3,36.0,30.17,ENE,78,0.0,1.0,47,0.00,,,0.00,weatherlink.com 1.10,2014-12-27 19:35:00,
2014-12-27 14:50:00,56.6,35.0,30.17,SE,141,0.0,1.0,45,0.00,,,0.00,weatherlink.com 1.10,2014-12-27 19:50:00,
2014-12-27 15:05:00,56.9,36.0,30.18,SW,224,0.0,1.0,45,0.00,,,0.00,weatherlink.com 1.10,2014-12-27 20:05:00,
2014-12-27 15:20:00,57.0,35.0,30.18,WSW,250,0.0,2.0,44,0.00,,,0.00,weatherlink.com 1.10,2014-12-27 20:20:00,
2014-12-27 15:35:00,57.0,34.0,30.18,WSW,252,0.0,2.0,43,0.00,,,0.00,weatherlink.com 1.10,2014-12-27 20:35:00,
2014-12-27 15:50:00,56.8,35.0,30.17,WSW,241,0.0,3.0,44,0.00,,,0.00,weatherlink.com 1.10,2014-12-27 20:50:00,
2014-12-27 16:05:00,56.5,35.0,30.17,WSW,250,0.0,1.0,44,0.00,,,0.00,weatherlink.com 1.10,2014-12-27 21:05:00,
2014-12-27 16:20:00,55.9,34.0,30.16,SSE,168,0.0,0.0,44,0.00,,,0.00,weatherlink.com 1.10,2014-12-27 21:20:00,
2014-12-27 16:35:00,54.8,33.0,30.15,East,95,0.0,0.0,44,0.00,,,0.00,weatherlink.com 1.10,2014-12-27 21:35:00,
2014-12-27 16:50:00,53.1,33.0,30.16,SE,130,0.0,0.0,47,0.00,,,0.00,weatherlink.com 1.10,2014-12-27 21:50:00,
2014-12-27 17:05:00,51.2,33.0,30.16,SE,130,0.0,0.0,50,0.00,,,0.00,weatherlink.com 1.10,2014-12-27 22:05:00,
2014-12-27 17:20:00,49.9,33.0,30.16,SE,129,0.0,0.0,53,0.00,,,0.00,weatherlink.com 1.10,2014-12-27 22:20:00,
2014-12-27 17:35:00,48.7,33.0,30.16,SE,130,0.0,0.0,56,0.00,,,0.00,weatherlink.com 1.10,2014-12-27 22:35:00,
2014-12-27 17:50:00,47.5,32.0,30.16,SE,129,0.0,0.0,56,0.00,,,0.00,weatherlink.com 1.10,2014-12-27 22:50:00,
2014-12-27 18:06:00,47.9,33.0,30.17,SE,130,0.0,0.0,56,0.00,,,0.00,weatherlink.com 1.10,2014-12-27 23:06:00,
2014-12-27 18:20:00,47.1,33.0,30.17,SE,129,0.0,0.0,59,0.00,,,0.00,weatherlink.com 1.10,2014-12-27 23:20:00,
2014-12-27 18:35:00,47.0,33.0,30.16,SE,130,0.0,0.0,58,0.00,,,0.00,weatherlink.com 1.10,2014-12-27 23:35:00,
2014-12-27 18:50:00,45.8,33.0,30.16,SE,130,0.0,0.0,62,0.00,,,0.00,weatherlink.com 1.10,2014-12-27 23:50:00,
2014-12-27 19:05:00,44.7,32.0,30.16,SE,129,0.0,0.0,62,0.00,,,0.00,weatherlink.com 1.10,2014-12-28 00:05:00,
2014-12-27 19:21:00,44.8,33.0,30.17,SE,129,0.0,0.0,63,0.00,,,0.00,weatherlink.com 1.10,2014-12-28 00:21:00,
2014-12-27 19:36:00,45.7,34.0,30.16,ENE,68,0.0,1.0,63,0.00,,,0.00,weatherlink.com 1.10,2014-12-28 00:36:00,
2014-12-27 19:51:00,46.3,35.0,30.16,ENE,68,0.0,0.0,64,0.00,,,0.00,weatherlink.com 1.10,2014-12-28 00:51:00,
2014-12-27 20:06:00,46.2,36.0,30.16,SE,130,0.0,1.0,67,0.00,,,0.00,weatherlink.com 1.10,2014-12-28 01:06:00,
2014-12-27 20:21:00,46.1,36.0,30.15,WSW,248,0.0,1.0,68,0.00,,,0.00,weatherlink.com 1.10,2014-12-28 01:21:00,
2014-12-27 20:36:00,45.5,36.0,30.15,ESE,119,0.0,0.0,70,0.00,,,0.00,weatherlink.com 1.10,2014-12-28 01:36:00,
2014-12-27 20:51:00,45.1,37.0,30.14,ESE,119,0.0,0.0,73,0.00,,,0.00,weatherlink.com 1.10,2014-12-28 01:51:00,
2014-12-27 21:06:00,44.3,37.0,30.13,ESE,119,0.0,0.0,74,0.00,,,0.00,weatherlink.com 1.10,2014-12-28 02:06:00,
2014-12-27 21:21:00,43.5,36.0,30.14,ESE,118,0.0,0.0,76,0.00,,,0.00,weatherlink.com 1.10,2014-12-28 02:21:00,
2014-12-27 21:36:00,43.0,37.0,30.14,ESE,118,0.0,0.0,78,0.00,,,0.00,weatherlink.com 1.10,2014-12-28 02:36:00,
2014-12-27 21:51:00,42.8,37.0,30.13,ESE,119,0.0,0.0,79,0.00,,,0.00,weatherlink.com 1.10,2014-12-28 02:51:00,
2014-12-27 22:06:00,41.9,37.0,30.12,ESE,118,0.0,0.0,81,0.00,,,0.00,weatherlink.com 1.10,2014-12-28 03:06:00,
2014-12-27 22:21:00,41.5,37.0,30.12,ESE,119,0.0,0.0,83,0.00,,,0.00,weatherlink.com 1.10,2014-12-28 03:21:00,
2014-12-27 22:36:00,41.1,36.0,30.10,ESE,117,0.0,0.0,83,0.00,,,0.00,weatherlink.com 1.10,2014-12-28 03:36:00,
2014-12-27 22:51:00,41.3,37.0,30.11,ESE,119,0.0,0.0,84,0.00,,,0.00,weatherlink.com 1.10,2014-12-28 03:51:00,
2014-12-27 23:06:00,41.6,37.0,30.10,ESE,119,0.0,0.0,84,0.00,,,0.00,weatherlink.com 1.10,2014-12-28 04:06:00,